Golar Kelvin — V7DE2 — position and weather

sailwx.info

Track history (hours):
 
Tides and Currents Weather Stations Pressure Air Temp Water Temp Dewpoint Dewpoint Depression Visibility Wind Speed Wind Dir Waves Ship Positions

Golar Kelvin

Last reported at 2017-Aug-27 06:50 UTC. Time now 2017-Sep-24 03:34 UTC.
Position N 24°48' W 016°26'.
Warning: this ship's position is 27 days out of date.

Length 289 m; draft 9.3 m.

Type: Ship (hazmat cat D). MMSI: 538005374.

Date/timePositionNaut miles runAvg speedWind from/ knotsBaromVisibWave heightAir tempDewpointWater temp
2017-Aug-27 06:50N 24°48' W 016°26'15012.0
2017-Aug-26 18:18N 27°09' W 015°26'712.0
2017-Aug-26 17:41N 27°16' W 015°24'4612.0
2017-Aug-26 13:52N 28°01' W 015°14'410.4
2017-Aug-26 13:29N 28°03' W 015°17'4 8.5
2017-Aug-26 12:59N 28°06' W 015°20'2 2.9
2017-Aug-26 12:27N 28°08' W 015°21'5 3.8
2017-Aug-26 11:05N 28°09' W 015°15'1 7.5
2017-Aug-26 10:53N 28°09' W 015°14'4 9.9
2017-Aug-26 10:30N 28°10' W 015°09'712.2
2017-Aug-26 09:54N 28°11' W 015°01'511.4
2017-Aug-26 09:29N 28°14' W 014°57'612.4
2017-Aug-26 09:00N 28°19' W 014°55'1812.3
2017-Aug-26 07:31N 28°37' W 014°49'412.6
2017-Aug-26 07:13N 28°41' W 014°48'17613.2
2017-Aug-25 17:54N 31°31' W 013°56'8213.2
2017-Aug-25 11:42N 32°50' W 013°31'313.1
2017-Aug-25 11:28N 32°53' W 013°30'713.1
2017-Aug-25 10:55N 32°60' W 013°28'512.9
2017-Aug-25 10:30N 33°05' W 013°26'612.7
2017-Aug-25 10:00N 33°11' W 013°24'912.9
2017-Aug-25 09:17N 33°20' W 013°21'412.9
2017-Aug-25 09:00N 33°23' W 013°20'612.8
2017-Aug-25 08:30N 33°30' W 013°18'612.9
2017-Aug-25 08:00N 33°36' W 013°16'813.1
2017-Aug-25 07:22N 33°44' W 013°14'713.1
2017-Aug-25 06:49N 33°51' W 013°12'413.0
2017-Aug-25 06:30N 33°55' W 013°11'1412.9
2017-Aug-25 05:25N 34°08' W 013°06'512.7
2017-Aug-25 05:00N 34°13' W 013°04'712.8
2017-Aug-25 04:29N 34°20' W 013°02'613.0
2017-Aug-25 04:00N 34°26' W 013°01'713.0
2017-Aug-25 03:30N 34°32' W 012°59'2012.9
2017-Aug-25 01:57N 34°52' W 012°52'512.4
2017-Aug-25 01:30N 34°57' W 012°50'1612.4
2017-Aug-25 00:11N 35°13' W 012°46'2213.1
2017-Aug-24 22:28N 35°35' W 012°39'612.7
2017-Aug-24 22:00N 35°40' W 012°37'812.6
2017-Aug-24 21:23N 35°48' W 012°34'512.8
2017-Aug-24 21:00N 35°52' W 012°33'612.7
2017-Aug-24 20:30N 35°59' W 012°31'612.8
2017-Aug-24 20:00N 36°05' W 012°29'713.0
2017-Aug-24 19:30N 36°11' W 012°27'713.1
2017-Aug-24 19:00N 36°18' W 012°25'713.4
2017-Aug-24 18:30N 36°24' W 012°22'713.1
2017-Aug-24 18:00N 36°30' W 012°20'612.7
2017-Aug-24 17:30N 36°36' W 012°19'612.6
2017-Aug-24 17:00N 36°43' W 012°18'713.0
2017-Aug-24 16:30N 36°49' W 012°17'813.1
2017-Aug-24 15:55N 36°57' W 012°16'1013.1
2017-Aug-24 15:07N 37°07' W 012°15'213.1
2017-Aug-24 14:58N 37°09' W 012°15'613.2
2017-Aug-24 14:30N 37°15' W 012°14'713.2
2017-Aug-24 13:59N 37°22' W 012°14'613.0
2017-Aug-24 13:30N 37°28' W 012°13'712.9
2017-Aug-24 13:00N 37°35' W 012°13'712.7
2017-Aug-24 12:27N 37°42' W 012°12'612.7
2017-Aug-24 11:56N 37°48' W 012°11'612.8
2017-Aug-24 11:30N 37°54' W 012°10'813.3
2017-Aug-24 10:55N 38°01' W 012°08'1013.3
2017-Aug-24 10:09N 38°11' W 012°03'313.1
2017-Aug-24 09:55N 38°14' W 012°02'512.9
2017-Aug-24 09:30N 38°19' W 012°00'612.6
2017-Aug-24 09:00N 38°25' W 011°58'612.7
2017-Aug-24 08:30N 38°31' W 011°56'1412.4
2017-Aug-24 07:25N 38°44' W 011°51'712.6
2017-Aug-24 06:52N 38°51' W 011°48'613.8
2017-Aug-24 06:25N 38°56' W 011°45'614.8
2017-Aug-24 05:59N 39°02' W 011°43'714.7
2017-Aug-24 05:30N 39°09' W 011°40'714.5
2017-Aug-24 05:00N 39°16' W 011°37'714.4
2017-Aug-24 04:30N 39°23' W 011°34'714.5
2017-Aug-24 04:00N 39°30' W 011°32'714.5
2017-Aug-24 03:30N 39°37' W 011°29'814.4
2017-Aug-24 02:58N 39°44' W 011°26'714.3
2017-Aug-24 02:30N 39°50' W 011°23'1114.5
2017-Aug-24 01:46N 40°01' W 011°19'514.5
2017-Aug-24 01:25N 40°05' W 011°17'614.4
2017-Aug-24 01:00N 40°11' W 011°15'1014.3
2017-Aug-24 00:20N 40°20' W 011°11'714.4
2017-Aug-23 23:52N 40°27' W 011°08'48813.3
2017-Aug-22 11:07N 46°32' W 003°43'412.8
2017-Aug-22 10:50N 46°34' W 003°38'412.7
2017-Aug-22 10:31N 46°36' W 003°33'612.6
2017-Aug-22 10:01N 46°39' W 003°25'712.3
2017-Aug-22 09:29N 46°42' W 003°16'612.6
2017-Aug-22 09:01N 46°44' W 003°08'612.9
2017-Aug-22 08:31N 46°49' W 003°02'713.0
2017-Aug-22 08:00N 46°53' W 002°54'713.1
2017-Aug-22 07:31N 46°57' W 002°47'713.3
2017-Aug-22 07:01N 46°60' W 002°38'713.7
2017-Aug-22 06:30N 47°03' W 002°29'510.8
2017-Aug-22 06:00N 47°06' W 002°23'4 8.5
2017-Aug-22 05:30N 47°10' W 002°19'612.7
2017-Aug-22 05:00N 47°15' W 002°14'4 8.8
2017-Aug-22 04:30N 47°18' W 002°09'0 0.3
2017-Aug-22 04:00N 47°18' W 002°09'0 0.0
2017-Aug-22 03:30N 47°18' W 002°09'0 0.0
2017-Aug-22 03:00N 47°18' W 002°09'0 0.0
2017-Aug-22 02:30N 47°18' W 002°09'0 0.0
2017-Aug-22 01:57N 47°18' W 002°09'0 0.0
2017-Aug-22 01:30N 47°18' W 002°09'0 0.0
2017-Aug-22 00:57N 47°18' W 002°09'0 0.0
2017-Aug-22 00:30N 47°18' W 002°09'0 0.0
2017-Aug-22 00:00N 47°18' W 002°09'0 0.0
2017-Aug-21 23:30N 47°18' W 002°09'0 0.0
2017-Aug-21 23:00N 47°18' W 002°09'0 0.0
2017-Aug-21 22:30N 47°18' W 002°09'0 0.0
2017-Aug-21 22:00N 47°18' W 002°09'0 0.0
2017-Aug-21 21:30N 47°18' W 002°09'0 0.0
2017-Aug-21 21:00N 47°18' W 002°09'0 0.0
2017-Aug-21 20:27N 47°18' W 002°09'0 0.0
2017-Aug-21 19:57N 47°18' W 002°09'0 0.0
2017-Aug-21 19:27N 47°18' W 002°09'0 0.0
2017-Aug-21 19:00N 47°18' W 002°09'0 0.0
2017-Aug-21 18:30N 47°18' W 002°09'0 0.0
2017-Aug-21 18:00N 47°18' W 002°09'0 0.0
2017-Aug-21 17:00N 47°18' W 002°09'0 0.0
2017-Aug-21 16:21N 47°18' W 002°09'0 0.0
2017-Aug-21 15:18N 47°18' W 002°09'0 0.0
2017-Aug-21 15:00N 47°18' W 002°09'0 0.0
2017-Aug-21 14:27N 47°18' W 002°09'0 0.0
2017-Aug-21 13:45N 47°18' W 002°09'0 0.0
2017-Aug-21 13:27N 47°18' W 002°09'0 0.0
2017-Aug-21 13:00N 47°18' W 002°09'0 0.0
2017-Aug-21 03:28N 47°18' W 002°09'0 0.0
2017-Aug-21 03:01N 47°18' W 002°09'0 0.3
2017-Aug-21 02:31N 47°18' W 002°08'3 6.2
2017-Aug-21 01:59N 47°16' W 002°12'612.4
2017-Aug-21 01:31N 47°11' W 002°18'611.0
2017-Aug-21 01:00N 47°07' W 002°23'3 5.1
2017-Aug-21 00:31N 47°05' W 002°25'3 6.8
2017-Aug-21 00:00N 47°03' W 002°29'4 8.2
2017-Aug-20 23:31N 47°01' W 002°35'4 7.3
2017-Aug-20 23:01N 46°59' W 002°39'2 3.3
2017-Aug-20 22:30N 46°58' W 002°40'1 1.5
2017-Aug-20 22:01N 46°57' W 002°41'2 3.2
2017-Aug-20 21:31N 46°58' W 002°44'3 5.8
2017-Aug-20 21:00N 46°57' W 002°48'612.5
2017-Aug-20 20:31N 46°54' W 002°56'713.0
2017-Aug-20 20:01N 46°50' W 003°04'612.7
2017-Aug-20 19:31N 46°47' W 003°11'612.8
2017-Aug-20 19:01N 46°44' W 003°19'712.9
2017-Aug-20 18:30N 46°40' W 003°27'712.7
2017-Aug-20 17:57N 46°37' W 003°36'612.8
2017-Aug-20 17:30N 46°34' W 003°43'613.0
2017-Aug-20 17:00N 46°30' W 003°51'612.9
2017-Aug-20 16:30N 46°27' W 003°59'812.6
2017-Aug-20 15:54N 46°23' W 004°09'42114.7
2017-Aug-19 11:15N 40°45' W 009°56'415.9
2017-Aug-19 10:59N 40°41' W 009°56'2416.2
2017-Aug-19 09:29N 40°17' W 009°55'816.1
2017-Aug-19 09:00N 40°09' W 009°55'816.1
2017-Aug-19 08:30N 40°01' W 009°56'916.2
2017-Aug-19 07:58N 39°52' W 009°56'916.0
2017-Aug-19 07:25N 39°44' W 009°57'916.0
2017-Aug-19 06:50N 39°34' W 009°57'516.1
2017-Aug-19 06:30N 39°29' W 009°57'816.3
2017-Aug-19 06:00N 39°21' W 009°57'816.5
2017-Aug-19 05:30N 39°12' W 009°57'816.5
2017-Aug-19 05:00N 39°04' W 009°57'816.8
2017-Aug-19 04:30N 38°56' W 009°57'816.9
2017-Aug-19 04:00N 38°47' W 009°57'816.8
2017-Aug-19 03:30N 38°39' W 009°55'917.3
2017-Aug-19 03:00N 38°31' W 009°53'917.2
2017-Aug-19 02:30N 38°22' W 009°50'817.0
2017-Aug-19 02:00N 38°14' W 009°48'816.7
2017-Aug-19 01:30N 38°06' W 009°46'816.6
2017-Aug-19 01:00N 37°58' W 009°44'816.3
2017-Aug-19 00:30N 37°50' W 009°41'816.5
2017-Aug-19 00:00N 37°42' W 009°39'816.6
2017-Aug-18 23:30N 37°34' W 009°36'816.7
2017-Aug-18 23:00N 37°25' W 009°34'916.3
2017-Aug-18 22:26N 37°16' W 009°31'715.9
2017-Aug-18 22:00N 37°10' W 009°29'816.0
2017-Aug-18 21:30N 37°02' W 009°27'816.0
2017-Aug-18 21:00N 36°54' W 009°25'815.9
2017-Aug-18 20:30N 36°47' W 009°20'816.0
2017-Aug-18 20:00N 36°42' W 009°13'815.6
2017-Aug-18 19:30N 36°39' W 009°04'816.0
2017-Aug-18 19:00N 36°37' W 008°54'815.7
2017-Aug-18 18:30N 36°36' W 008°44'815.1
2017-Aug-18 18:00N 36°35' W 008°35'714.5
2017-Aug-18 17:30N 36°33' W 008°26'714.8
2017-Aug-18 17:00N 36°31' W 008°18'815.4
2017-Aug-18 16:30N 36°29' W 008°08'815.4
2017-Aug-18 16:00N 36°27' W 007°59'815.4
2017-Aug-18 15:30N 36°25' W 007°50'815.5
2017-Aug-18 15:00N 36°22' W 007°41'24115.2
2017-Aug-17 23:11N 36°11' W 002°42'616.0
2017-Aug-17 22:50N 36°12' W 002°35'8415.8
2017-Aug-17 17:33N 36°35' W 000°56'116.5
2017-Aug-17 17:30N 36°36' W 000°55'816.7
2017-Aug-17 17:00N 36°39' W 000°45'816.6
2017-Aug-17 16:30N 36°42' W 000°36'1916.6
2017-Aug-17 15:22N 36°50' W 000°14'616.8
2017-Aug-17 15:00N 36°52' W 000°07'917.4
2017-Aug-17 14:30N 36°56' E 000°03'918.3
2017-Aug-17 14:00N 36°60' E 000°13'918.3
2017-Aug-17 13:30N 37°03' E 000°24'918.0
2017-Aug-17 13:00N 37°07' E 000°34'2317.6
2017-Aug-17 11:43N 37°14' E 001°01'518.4
2017-Aug-17 11:26N 37°14' E 001°07'818.3
2017-Aug-17 11:00N 37°15' E 001°17'  
Track history (hours):
 
Tides and Currents Weather Stations Pressure Air Temp Water Temp Dewpoint Dewpoint Depression Visibility Wind Speed Wind Dir Waves Ship Positions

Golar Kelvin

Last reported at 2017-Aug-27 06:50 UTC. Time now 2017-Sep-24 03:34 UTC.
Position N 24°48' W 016°26'.
Warning: this ship's position is 27 days out of date.

Length 289 m; draft 9.3 m.

Type: Ship (hazmat cat D). MMSI: 538005374.

Date/timePositionNaut miles runAvg speedWind from/ knotsBaromVisibWave heightAir tempDewpointWater temp
2017-Aug-27 06:50N 24°48' W 016°26'15012.0
2017-Aug-26 18:18N 27°09' W 015°26'712.0
2017-Aug-26 17:41N 27°16' W 015°24'4612.0
2017-Aug-26 13:52N 28°01' W 015°14'410.4
2017-Aug-26 13:29N 28°03' W 015°17'4 8.5
2017-Aug-26 12:59N 28°06' W 015°20'2 2.9
2017-Aug-26 12:27N 28°08' W 015°21'5 3.8
2017-Aug-26 11:05N 28°09' W 015°15'1 7.5
2017-Aug-26 10:53N 28°09' W 015°14'4 9.9
2017-Aug-26 10:30N 28°10' W 015°09'712.2
2017-Aug-26 09:54N 28°11' W 015°01'511.4
2017-Aug-26 09:29N 28°14' W 014°57'612.4
2017-Aug-26 09:00N 28°19' W 014°55'1812.3
2017-Aug-26 07:31N 28°37' W 014°49'412.6
2017-Aug-26 07:13N 28°41' W 014°48'17613.2
2017-Aug-25 17:54N 31°31' W 013°56'8213.2
2017-Aug-25 11:42N 32°50' W 013°31'313.1
2017-Aug-25 11:28N 32°53' W 013°30'713.1
2017-Aug-25 10:55N 32°60' W 013°28'512.9
2017-Aug-25 10:30N 33°05' W 013°26'612.7
2017-Aug-25 10:00N 33°11' W 013°24'912.9
2017-Aug-25 09:17N 33°20' W 013°21'412.9
2017-Aug-25 09:00N 33°23' W 013°20'612.8
2017-Aug-25 08:30N 33°30' W 013°18'612.9
2017-Aug-25 08:00N 33°36' W 013°16'813.1
2017-Aug-25 07:22N 33°44' W 013°14'713.1
2017-Aug-25 06:49N 33°51' W 013°12'413.0
2017-Aug-25 06:30N 33°55' W 013°11'1412.9
2017-Aug-25 05:25N 34°08' W 013°06'512.7
2017-Aug-25 05:00N 34°13' W 013°04'712.8
2017-Aug-25 04:29N 34°20' W 013°02'613.0
2017-Aug-25 04:00N 34°26' W 013°01'713.0
2017-Aug-25 03:30N 34°32' W 012°59'2012.9
2017-Aug-25 01:57N 34°52' W 012°52'512.4
2017-Aug-25 01:30N 34°57' W 012°50'1612.4
2017-Aug-25 00:11N 35°13' W 012°46'2213.1
2017-Aug-24 22:28N 35°35' W 012°39'612.7
2017-Aug-24 22:00N 35°40' W 012°37'812.6
2017-Aug-24 21:23N 35°48' W 012°34'512.8
2017-Aug-24 21:00N 35°52' W 012°33'612.7
2017-Aug-24 20:30N 35°59' W 012°31'612.8
2017-Aug-24 20:00N 36°05' W 012°29'713.0
2017-Aug-24 19:30N 36°11' W 012°27'713.1
2017-Aug-24 19:00N 36°18' W 012°25'713.4
2017-Aug-24 18:30N 36°24' W 012°22'713.1
2017-Aug-24 18:00N 36°30' W 012°20'612.7
2017-Aug-24 17:30N 36°36' W 012°19'612.6
2017-Aug-24 17:00N 36°43' W 012°18'713.0
2017-Aug-24 16:30N 36°49' W 012°17'813.1
2017-Aug-24 15:55N 36°57' W 012°16'1013.1
2017-Aug-24 15:07N 37°07' W 012°15'213.1
2017-Aug-24 14:58N 37°09' W 012°15'613.2
2017-Aug-24 14:30N 37°15' W 012°14'713.2
2017-Aug-24 13:59N 37°22' W 012°14'613.0
2017-Aug-24 13:30N 37°28' W 012°13'712.9
2017-Aug-24 13:00N 37°35' W 012°13'712.7
2017-Aug-24 12:27N 37°42' W 012°12'612.7
2017-Aug-24 11:56N 37°48' W 012°11'612.8
2017-Aug-24 11:30N 37°54' W 012°10'813.3
2017-Aug-24 10:55N 38°01' W 012°08'1013.3
2017-Aug-24 10:09N 38°11' W 012°03'313.1
2017-Aug-24 09:55N 38°14' W 012°02'512.9
2017-Aug-24 09:30N 38°19' W 012°00'612.6
2017-Aug-24 09:00N 38°25' W 011°58'612.7
2017-Aug-24 08:30N 38°31' W 011°56'1412.4
2017-Aug-24 07:25N 38°44' W 011°51'712.6
2017-Aug-24 06:52N 38°51' W 011°48'613.8
2017-Aug-24 06:25N 38°56' W 011°45'614.8
2017-Aug-24 05:59N 39°02' W 011°43'714.7
2017-Aug-24 05:30N 39°09' W 011°40'714.5
2017-Aug-24 05:00N 39°16' W 011°37'714.4
2017-Aug-24 04:30N 39°23' W 011°34'714.5
2017-Aug-24 04:00N 39°30' W 011°32'714.5
2017-Aug-24 03:30N 39°37' W 011°29'814.4
2017-Aug-24 02:58N 39°44' W 011°26'714.3
2017-Aug-24 02:30N 39°50' W 011°23'1114.5
2017-Aug-24 01:46N 40°01' W 011°19'514.5
2017-Aug-24 01:25N 40°05' W 011°17'614.4
2017-Aug-24 01:00N 40°11' W 011°15'1014.3
2017-Aug-24 00:20N 40°20' W 011°11'714.4
2017-Aug-23 23:52N 40°27' W 011°08'48813.3
2017-Aug-22 11:07N 46°32' W 003°43'412.8
2017-Aug-22 10:50N 46°34' W 003°38'412.7
2017-Aug-22 10:31N 46°36' W 003°33'612.6
2017-Aug-22 10:01N 46°39' W 003°25'712.3
2017-Aug-22 09:29N 46°42' W 003°16'612.6
2017-Aug-22 09:01N 46°44' W 003°08'612.9
2017-Aug-22 08:31N 46°49' W 003°02'713.0
2017-Aug-22 08:00N 46°53' W 002°54'713.1
2017-Aug-22 07:31N 46°57' W 002°47'713.3
2017-Aug-22 07:01N 46°60' W 002°38'713.7
2017-Aug-22 06:30N 47°03' W 002°29'510.8
2017-Aug-22 06:00N 47°06' W 002°23'4 8.5
2017-Aug-22 05:30N 47°10' W 002°19'612.7
2017-Aug-22 05:00N 47°15' W 002°14'4 8.8
2017-Aug-22 04:30N 47°18' W 002°09'0 0.3
2017-Aug-22 04:00N 47°18' W 002°09'0 0.0
2017-Aug-22 03:30N 47°18' W 002°09'0 0.0
2017-Aug-22 03:00N 47°18' W 002°09'0 0.0
2017-Aug-22 02:30N 47°18' W 002°09'0 0.0
2017-Aug-22 01:57N 47°18' W 002°09'0 0.0
2017-Aug-22 01:30N 47°18' W 002°09'0 0.0
2017-Aug-22 00:57N 47°18' W 002°09'0 0.0
2017-Aug-22 00:30N 47°18' W 002°09'0 0.0
2017-Aug-22 00:00N 47°18' W 002°09'0 0.0
2017-Aug-21 23:30N 47°18' W 002°09'0 0.0
2017-Aug-21 23:00N 47°18' W 002°09'0 0.0
2017-Aug-21 22:30N 47°18' W 002°09'0 0.0
2017-Aug-21 22:00N 47°18' W 002°09'0 0.0
2017-Aug-21 21:30N 47°18' W 002°09'0 0.0
2017-Aug-21 21:00N 47°18' W 002°09'0 0.0
2017-Aug-21 20:27N 47°18' W 002°09'0 0.0
2017-Aug-21 19:57N 47°18' W 002°09'0 0.0
2017-Aug-21 19:27N 47°18' W 002°09'0 0.0
2017-Aug-21 19:00N 47°18' W 002°09'0 0.0
2017-Aug-21 18:30N 47°18' W 002°09'0 0.0
2017-Aug-21 18:00N 47°18' W 002°09'0 0.0
2017-Aug-21 17:00N 47°18' W 002°09'0 0.0
2017-Aug-21 16:21N 47°18' W 002°09'0 0.0
2017-Aug-21 15:18N 47°18' W 002°09'0 0.0
2017-Aug-21 15:00N 47°18' W 002°09'0 0.0
2017-Aug-21 14:27N 47°18' W 002°09'0 0.0
2017-Aug-21 13:45N 47°18' W 002°09'0 0.0
2017-Aug-21 13:27N 47°18' W 002°09'0 0.0
2017-Aug-21 13:00N 47°18' W 002°09'0 0.0
2017-Aug-21 03:28N 47°18' W 002°09'0 0.0
2017-Aug-21 03:01N 47°18' W 002°09'0 0.3
2017-Aug-21 02:31N 47°18' W 002°08'3 6.2
2017-Aug-21 01:59N 47°16' W 002°12'612.4
2017-Aug-21 01:31N 47°11' W 002°18'611.0
2017-Aug-21 01:00N 47°07' W 002°23'3 5.1
2017-Aug-21 00:31N 47°05' W 002°25'3 6.8
2017-Aug-21 00:00N 47°03' W 002°29'4 8.2
2017-Aug-20 23:31N 47°01' W 002°35'4 7.3
2017-Aug-20 23:01N 46°59' W 002°39'2 3.3
2017-Aug-20 22:30N 46°58' W 002°40'1 1.5
2017-Aug-20 22:01N 46°57' W 002°41'2 3.2
2017-Aug-20 21:31N 46°58' W 002°44'3 5.8
2017-Aug-20 21:00N 46°57' W 002°48'612.5
2017-Aug-20 20:31N 46°54' W 002°56'713.0
2017-Aug-20 20:01N 46°50' W 003°04'612.7
2017-Aug-20 19:31N 46°47' W 003°11'612.8
2017-Aug-20 19:01N 46°44' W 003°19'712.9
2017-Aug-20 18:30N 46°40' W 003°27'712.7
2017-Aug-20 17:57N 46°37' W 003°36'612.8
2017-Aug-20 17:30N 46°34' W 003°43'613.0
2017-Aug-20 17:00N 46°30' W 003°51'612.9
2017-Aug-20 16:30N 46°27' W 003°59'812.6
2017-Aug-20 15:54N 46°23' W 004°09'42114.7
2017-Aug-19 11:15N 40°45' W 009°56'415.9
2017-Aug-19 10:59N 40°41' W 009°56'2416.2
2017-Aug-19 09:29N 40°17' W 009°55'816.1
2017-Aug-19 09:00N 40°09' W 009°55'816.1
2017-Aug-19 08:30N 40°01' W 009°56'916.2
2017-Aug-19 07:58N 39°52' W 009°56'916.0
2017-Aug-19 07:25N 39°44' W 009°57'916.0
2017-Aug-19 06:50N 39°34' W 009°57'516.1
2017-Aug-19 06:30N 39°29' W 009°57'816.3
2017-Aug-19 06:00N 39°21' W 009°57'816.5
2017-Aug-19 05:30N 39°12' W 009°57'816.5
2017-Aug-19 05:00N 39°04' W 009°57'816.8
2017-Aug-19 04:30N 38°56' W 009°57'816.9
2017-Aug-19 04:00N 38°47' W 009°57'816.8
2017-Aug-19 03:30N 38°39' W 009°55'917.3
2017-Aug-19 03:00N 38°31' W 009°53'917.2
2017-Aug-19 02:30N 38°22' W 009°50'817.0
2017-Aug-19 02:00N 38°14' W 009°48'816.7
2017-Aug-19 01:30N 38°06' W 009°46'816.6
2017-Aug-19 01:00N 37°58' W 009°44'816.3
2017-Aug-19 00:30N 37°50' W 009°41'816.5
2017-Aug-19 00:00N 37°42' W 009°39'816.6
2017-Aug-18 23:30N 37°34' W 009°36'816.7
2017-Aug-18 23:00N 37°25' W 009°34'916.3
2017-Aug-18 22:26N 37°16' W 009°31'715.9
2017-Aug-18 22:00N 37°10' W 009°29'816.0
2017-Aug-18 21:30N 37°02' W 009°27'816.0
2017-Aug-18 21:00N 36°54' W 009°25'815.9
2017-Aug-18 20:30N 36°47' W 009°20'816.0
2017-Aug-18 20:00N 36°42' W 009°13'815.6
2017-Aug-18 19:30N 36°39' W 009°04'816.0
2017-Aug-18 19:00N 36°37' W 008°54'815.7
2017-Aug-18 18:30N 36°36' W 008°44'815.1
2017-Aug-18 18:00N 36°35' W 008°35'714.5
2017-Aug-18 17:30N 36°33' W 008°26'714.8
2017-Aug-18 17:00N 36°31' W 008°18'815.4
2017-Aug-18 16:30N 36°29' W 008°08'815.4
2017-Aug-18 16:00N 36°27' W 007°59'815.4
2017-Aug-18 15:30N 36°25' W 007°50'815.5
2017-Aug-18 15:00N 36°22' W 007°41'24115.2
2017-Aug-17 23:11N 36°11' W 002°42'616.0
2017-Aug-17 22:50N 36°12' W 002°35'8415.8
2017-Aug-17 17:33N 36°35' W 000°56'116.5
2017-Aug-17 17:30N 36°36' W 000°55'816.7
2017-Aug-17 17:00N 36°39' W 000°45'816.6
2017-Aug-17 16:30N 36°42' W 000°36'1916.6
2017-Aug-17 15:22N 36°50' W 000°14'616.8
2017-Aug-17 15:00N 36°52' W 000°07'917.4
2017-Aug-17 14:30N 36°56' E 000°03'918.3
2017-Aug-17 14:00N 36°60' E 000°13'918.3
2017-Aug-17 13:30N 37°03' E 000°24'918.0
2017-Aug-17 13:00N 37°07' E 000°34'2317.6
2017-Aug-17 11:43N 37°14' E 001°01'518.4
2017-Aug-17 11:26N 37°14' E 001°07'818.3
2017-Aug-17 11:00N 37°15' E 001°17'  

Dump ship's entire track history